createdAt,value
2018-04-13T00:01:35.412Z,20.70
2018-04-13T00:04:04.726Z,27.03
2018-04-13T00:06:34.070Z,23.90
2018-04-13T00:09:03.390Z,21.50
2018-04-13T00:11:32.694Z,21.30
2018-04-13T00:14:02.059Z,24.47
2018-04-13T00:16:32.127Z,19.23
2018-04-13T00:19:01.442Z,18.00
2018-04-13T00:21:30.769Z,16.23
2018-04-13T00:24:00.898Z,20.43
2018-04-13T00:26:30.962Z,22.13
2018-04-13T00:29:01.036Z,19.10
2018-04-13T00:31:30.420Z,15.63
2018-04-13T00:33:59.718Z,20.50
2018-04-13T00:36:29.039Z,22.03
2018-04-13T00:38:59.124Z,20.33
2018-04-13T00:41:28.462Z,22.90
2018-04-13T00:43:57.767Z,23.87
2018-04-13T00:46:27.840Z,21.87
2018-04-13T00:48:57.181Z,21.57
2018-04-13T00:51:26.487Z,19.63
2018-04-13T00:53:55.820Z,21.63
2018-04-13T00:56:25.126Z,21.17
2018-04-13T00:58:54.471Z,24.47
2018-04-13T01:01:23.810Z,18.83
2018-04-13T01:03:53.885Z,18.03
2018-04-13T01:06:24.227Z,20.40
2018-04-13T01:08:53.532Z,24.67
2018-04-13T01:11:22.838Z,23.60
2018-04-13T01:13:52.185Z,23.53
2018-04-13T01:16:21.487Z,25.40
2018-04-13T01:18:50.790Z,25.70
2018-04-13T01:21:20.133Z,25.40
2018-04-13T01:23:49.433Z,24.00
2018-04-13T01:26:18.771Z,22.00
2018-04-13T01:28:48.846Z,25.07
2018-04-13T01:31:18.153Z,24.40
2018-04-13T01:33:47.492Z,24.63
2018-04-13T01:36:16.817Z,26.90
2018-04-13T01:38:46.900Z,24.17
2018-04-13T01:41:16.223Z,22.20
2018-04-13T01:43:46.312Z,29.10
2018-04-13T01:46:15.648Z,29.80
2018-04-13T01:48:45.727Z,28.33
2018-04-13T01:51:15.058Z,32.03
2018-04-13T01:53:45.174Z,30.73
2018-04-13T01:56:14.515Z,34.77
2018-04-13T01:58:43.818Z,41.30
2018-04-13T02:01:13.131Z,39.50
2018-04-13T02:03:42.446Z,33.10
2018-04-13T02:06:12.528Z,34.47
2018-04-13T02:08:42.622Z,37.30
2018-04-13T02:11:11.947Z,39.07
2018-04-13T02:13:42.039Z,40.63
2018-04-13T02:16:11.393Z,35.83
2018-04-13T02:18:40.699Z,42.30
2018-04-13T02:21:10.011Z,49.47
2018-04-13T02:23:39.339Z,52.20
2018-04-13T02:26:08.650Z,46.00
2018-04-13T02:28:37.946Z,33.10
2018-04-13T02:31:07.297Z,36.33
2018-04-13T02:33:36.608Z,39.33
2018-04-13T02:36:05.912Z,40.77
2018-04-13T02:38:35.242Z,42.70
2018-04-13T02:41:04.557Z,34.07
2018-04-13T02:43:33.887Z,37.53
2018-04-13T02:46:03.316Z,39.63
2018-04-13T02:48:33.422Z,33.73
2018-04-13T02:51:03.529Z,37.67
2018-04-13T02:53:32.834Z,41.23
2018-04-13T02:56:02.163Z,39.77
2018-04-13T02:58:32.265Z,43.90
2018-04-13T03:01:02.340Z,42.83
2018-04-13T03:03:31.675Z,44.00
2018-04-13T03:06:01.009Z,49.23
2018-04-13T03:08:30.330Z,45.17
2018-04-13T03:10:59.678Z,56.63
2018-04-13T03:13:29.039Z,45.53
2018-04-13T03:15:58.362Z,41.33
2018-04-13T03:18:27.679Z,48.23
2018-04-13T03:20:56.978Z,38.83
2018-04-13T03:23:26.323Z,42.93
2018-04-13T03:25:56.398Z,43.60
2018-04-13T03:31:01.191Z,49.20
2018-04-13T03:33:32.244Z,46.60
2018-04-13T03:36:01.563Z,53.43
2018-04-13T03:38:30.870Z,51.67
2018-04-13T03:41:00.213Z,55.87
2018-04-13T03:43:29.551Z,45.23
2018-04-13T03:45:58.885Z,53.83
2018-04-13T03:48:28.218Z,56.17
2018-04-13T03:50:57.547Z,42.57
2018-04-13T03:53:27.632Z,44.03
2018-04-13T03:55:56.957Z,37.17
2018-04-13T03:58:27.869Z,51.37
2018-04-13T04:00:57.218Z,35.93
2018-04-13T04:03:27.295Z,35.20
2018-04-13T04:05:56.644Z,48.80
2018-04-13T04:08:26.714Z,37.33
2018-04-13T04:10:56.051Z,39.13
2018-04-13T04:13:25.362Z,51.70
2018-04-13T04:15:55.456Z,40.73
2018-04-13T04:18:24.797Z,37.87
2018-04-13T04:21:11.852Z,30.27
2018-04-13T04:24:00.634Z,43.67
2018-04-13T04:26:50.182Z,40.80
2018-04-13T04:29:19.527Z,42.43
2018-04-13T04:31:48.839Z,47.20
2018-04-13T04:34:18.938Z,51.00
2018-04-13T04:36:48.273Z,45.37
2018-04-13T04:39:18.384Z,43.40
2018-04-13T04:41:47.705Z,38.97
2018-04-13T04:44:17.027Z,40.13
2018-04-13T04:46:46.372Z,33.87
2018-04-13T04:49:15.677Z,34.93
2018-04-13T04:51:45.039Z,36.97
2018-04-13T04:54:14.375Z,25.53
2018-04-13T04:56:43.713Z,35.53
2018-04-13T04:59:13.807Z,33.03
2018-04-13T05:01:43.790Z,36.03
2018-04-13T05:04:13.108Z,22.83
2018-04-13T05:06:42.410Z,33.20
2018-04-13T05:09:11.740Z,38.37
2018-04-13T05:11:41.085Z,38.63
2018-04-13T05:14:10.388Z,39.90
2018-04-13T05:16:39.734Z,42.83
2018-04-13T05:19:09.057Z,40.23
2018-04-13T05:21:38.386Z,37.37
2018-04-13T05:24:07.721Z,42.33
2018-04-13T05:26:37.025Z,36.77
2018-04-13T05:29:06.326Z,41.70
2018-04-13T05:31:35.663Z,39.80
2018-04-13T05:34:05.096Z,33.63
2018-04-13T05:36:34.402Z,34.10
2018-04-13T05:39:03.760Z,39.23
2018-04-13T05:41:33.099Z,35.97
2018-04-13T05:44:03.196Z,34.57
2018-04-13T05:46:32.526Z,45.97
2018-04-13T05:49:01.835Z,41.33
2018-04-13T05:51:31.151Z,34.10
2018-04-13T05:54:00.500Z,35.03
2018-04-13T05:56:29.820Z,34.00
2018-04-13T05:58:59.935Z,38.57
2018-04-13T06:01:29.250Z,43.23
2018-04-13T06:03:59.374Z,38.17
2018-04-13T06:06:29.456Z,32.33
2018-04-13T06:08:58.817Z,35.47
2018-04-13T06:11:28.147Z,35.57
2018-04-13T06:13:57.463Z,35.40
2018-04-13T06:16:26.811Z,33.03
2018-04-13T06:18:56.891Z,40.20
2018-04-13T06:21:26.215Z,36.30
2018-04-13T06:23:56.298Z,38.70
2018-04-13T06:26:25.603Z,36.20
2018-04-13T06:28:54.946Z,45.47
2018-04-13T06:31:25.035Z,34.87
2018-04-13T06:33:54.369Z,31.47
2018-04-13T06:36:23.700Z,37.33
2018-04-13T06:38:53.017Z,35.90
2018-04-13T06:41:22.356Z,36.37
2018-04-13T06:43:51.844Z,40.37
2018-04-13T06:46:21.154Z,38.10
2018-04-13T06:48:50.547Z,36.60
2018-04-13T06:51:19.847Z,50.63
2018-04-13T06:53:49.142Z,53.10
2018-04-13T06:56:18.475Z,47.80
2018-04-13T06:58:47.803Z,47.03
2018-04-13T07:01:18.014Z,56.07
2018-04-13T07:03:47.297Z,57.50
2018-04-13T07:06:16.652Z,53.47
2018-04-13T07:08:45.995Z,59.90
2018-04-13T07:11:15.311Z,57.50
2018-04-13T07:13:45.154Z,60.57
2018-04-13T07:16:14.457Z,51.33
2018-04-13T07:18:45.345Z,54.40
2018-04-13T07:21:14.694Z,54.40
2018-04-13T07:23:45.282Z,56.77
2018-04-13T07:26:14.612Z,63.20
2018-04-13T07:28:43.951Z,53.57
2018-04-13T07:31:13.297Z,55.50
2018-04-13T07:33:42.631Z,53.93
2018-04-13T07:36:11.969Z,57.33
2018-04-13T07:38:41.266Z,53.20
2018-04-13T07:41:10.594Z,53.57
2018-04-13T07:43:39.945Z,55.17
2018-04-13T07:46:10.044Z,50.37
2018-04-13T07:48:39.349Z,52.03
2018-04-13T07:51:09.306Z,43.97
2018-04-13T07:53:38.050Z,48.67
2018-04-13T07:56:07.411Z,43.57
2018-04-13T07:58:36.752Z,46.90
2018-04-13T08:01:06.133Z,44.00
2018-04-13T08:03:35.452Z,40.90
2018-04-13T08:06:04.788Z,38.20
2018-04-13T08:08:34.124Z,41.27
2018-04-13T08:11:03.460Z,38.30
2018-04-13T08:13:32.797Z,41.20
2018-04-13T08:16:02.910Z,36.47
2018-04-13T08:18:32.214Z,35.30
2018-04-13T08:21:01.547Z,38.67
2018-04-13T08:23:30.857Z,34.07
2018-04-13T08:26:00.178Z,36.20
2018-04-13T08:28:29.502Z,35.83
2018-04-13T08:30:58.830Z,38.27
2018-04-13T08:33:28.147Z,34.57
2018-04-13T08:35:58.235Z,37.17
2018-04-13T08:38:27.570Z,35.50
2018-04-13T08:40:57.674Z,31.67
2018-04-13T08:43:27.053Z,34.17
2018-04-13T08:45:56.341Z,28.33
2018-04-13T08:48:25.674Z,31.03
2018-04-13T08:50:55.035Z,30.03
2018-04-13T08:53:24.387Z,31.43
2018-04-13T08:55:53.675Z,33.20
2018-04-13T08:58:23.009Z,32.60
2018-04-13T09:00:53.096Z,29.43
2018-04-13T09:03:22.435Z,31.20
2018-04-13T09:05:52.506Z,30.17
2018-04-13T09:08:21.828Z,33.47
2018-04-13T09:10:51.174Z,32.27
2018-04-13T09:13:21.279Z,29.00
2018-04-13T09:15:51.380Z,25.43
2018-04-13T09:18:20.699Z,28.40
2018-04-13T09:20:50.901Z,26.60
2018-04-13T09:23:20.178Z,25.67
2018-04-13T09:25:50.227Z,25.80
2018-04-13T09:28:19.545Z,24.97
2018-04-13T09:30:48.907Z,23.20
2018-04-13T09:33:18.224Z,19.67
2018-04-13T09:35:48.211Z,21.00
2018-04-13T09:38:17.540Z,22.07
2018-04-13T09:40:46.958Z,21.43
2018-04-13T09:43:16.286Z,20.40
2018-04-13T09:45:46.369Z,23.63
2018-04-13T09:48:15.703Z,23.03
2018-04-13T09:50:45.804Z,21.57
2018-04-13T09:53:15.149Z,25.50
2018-04-13T09:55:44.461Z,26.87
2018-04-13T09:58:13.760Z,24.57
2018-04-13T10:00:43.113Z,27.20
2018-04-13T10:03:17.945Z,29.40
2018-04-13T10:05:47.301Z,31.90
2018-04-13T10:08:16.624Z,32.87
2018-04-13T10:10:45.935Z,29.80
2018-04-13T10:13:16.611Z,28.80
2018-04-13T10:15:46.722Z,28.70
2018-04-13T10:18:16.040Z,29.37
2018-04-13T10:20:46.141Z,31.93
2018-04-13T10:23:15.480Z,29.20
2018-04-13T10:25:44.798Z,29.83
2018-04-13T10:28:14.108Z,28.33
2018-04-13T10:30:43.453Z,30.37
2018-04-13T10:33:13.541Z,30.43
2018-04-13T10:35:42.891Z,30.13
2018-04-13T10:38:12.978Z,31.20
2018-04-13T10:40:42.290Z,33.87
2018-04-13T10:43:11.618Z,33.13
2018-04-13T10:45:41.711Z,35.03
2018-04-13T10:48:11.043Z,33.30
2018-04-13T10:50:41.118Z,30.80
2018-04-13T10:53:10.479Z,33.30
2018-04-13T10:55:40.579Z,32.07
2018-04-13T10:58:10.649Z,40.93
2018-04-13T11:00:39.966Z,39.00
2018-04-13T11:03:09.326Z,41.07
2018-04-13T11:05:38.651Z,38.03
2018-04-13T11:08:08.721Z,37.23
2018-04-13T11:10:38.039Z,26.47
2018-04-13T11:13:08.150Z,27.27
2018-04-13T11:15:38.250Z,24.30
2018-04-13T11:18:07.623Z,21.27
2018-04-13T11:20:36.970Z,23.87
2018-04-13T11:23:06.283Z,25.33
2018-04-13T11:25:36.398Z,21.87
2018-04-13T11:28:05.742Z,22.60
2018-04-13T11:30:35.044Z,22.70
2018-04-13T11:33:04.381Z,22.97
2018-04-13T11:35:33.693Z,23.87
2018-04-13T11:38:03.035Z,28.00
2018-04-13T11:40:32.349Z,21.60
2018-04-13T11:43:01.676Z,22.73
2018-04-13T11:45:31.028Z,24.10
2018-04-13T11:48:01.109Z,18.30
2018-04-13T11:50:30.457Z,18.03
2018-04-13T11:53:00.595Z,17.47
2018-04-13T11:55:29.888Z,17.80
2018-04-13T11:58:00.042Z,18.53
2018-04-13T12:00:29.532Z,17.90
2018-04-13T12:02:59.733Z,20.87
2018-04-13T12:08:05.504Z,18.27
2018-04-13T12:10:35.673Z,14.80
2018-04-13T12:13:05.078Z,18.47
2018-04-13T12:15:34.499Z,18.43
2018-04-13T12:18:03.943Z,20.10
2018-04-13T12:20:34.133Z,18.20
2018-04-13T12:23:03.617Z,19.43
2018-04-13T12:25:33.008Z,19.90
2018-04-13T12:28:02.495Z,18.87
2018-04-13T12:30:31.878Z,17.50
2018-04-13T12:33:03.657Z,16.17
2018-04-13T12:35:34.114Z,16.10
2018-04-13T12:38:04.756Z,17.33
2018-04-13T12:40:35.814Z,17.17
2018-04-13T12:43:05.144Z,18.30
2018-04-13T12:45:35.237Z,15.17
2018-04-13T12:48:04.571Z,18.53
2018-04-13T12:50:34.661Z,19.27
2018-04-13T12:53:04.048Z,19.17
2018-04-13T12:55:34.152Z,19.13
2018-04-13T12:58:03.450Z,20.80
2018-04-13T13:00:32.777Z,21.63
2018-04-13T13:03:02.128Z,22.90
2018-04-13T13:05:32.204Z,22.20
2018-04-13T13:08:01.561Z,19.20
2018-04-13T13:10:31.638Z,19.23
2018-04-13T13:13:01.020Z,21.30
2018-04-13T13:15:30.372Z,20.40
2018-04-13T13:18:00.467Z,20.67
2018-04-13T13:20:29.779Z,19.77
2018-04-13T13:22:59.121Z,20.17
2018-04-13T13:25:28.451Z,19.93
2018-04-13T13:27:57.773Z,21.17
2018-04-13T13:30:27.118Z,16.97
2018-04-13T13:32:57.195Z,18.23
2018-04-13T13:35:26.556Z,17.93
2018-04-13T13:37:55.859Z,15.30
2018-04-13T13:40:25.167Z,13.50
2018-04-13T13:42:54.540Z,14.83
2018-04-13T13:45:23.843Z,14.27
2018-04-13T13:47:53.933Z,14.53
2018-04-13T13:50:23.273Z,15.03
2018-04-13T13:52:53.343Z,14.50
2018-04-13T13:55:22.764Z,12.60
2018-04-13T13:57:52.119Z,11.97
2018-04-13T14:00:21.975Z,12.90
2018-04-13T14:02:51.283Z,13.77
2018-04-13T14:05:20.617Z,14.90
2018-04-13T14:07:50.705Z,14.60
2018-04-13T14:10:20.025Z,14.43
2018-04-13T14:12:49.379Z,15.33
2018-04-13T14:15:18.684Z,14.83
2018-04-13T14:17:48.015Z,14.60
2018-04-13T14:20:17.315Z,16.40
2018-04-13T14:22:46.660Z,13.57
2018-04-13T14:25:16.750Z,12.13
2018-04-13T14:27:46.083Z,13.00
2018-04-13T14:30:16.189Z,15.50
2018-04-13T14:32:45.511Z,16.90
2018-04-13T14:35:14.831Z,15.67
2018-04-13T14:37:44.163Z,15.00
2018-04-13T14:40:13.520Z,16.10
2018-04-13T14:42:45.069Z,14.13
2018-04-13T14:45:15.154Z,13.40
2018-04-13T14:47:44.489Z,15.93
2018-04-13T14:50:14.611Z,14.47
2018-04-13T14:52:44.702Z,14.20
2018-04-13T14:55:14.034Z,15.70
2018-04-13T14:57:44.132Z,18.20
2018-04-13T15:00:13.460Z,15.63
2018-04-13T15:02:43.553Z,14.87
2018-04-13T15:05:12.878Z,17.23
2018-04-13T15:07:42.227Z,15.77
2018-04-13T15:10:11.627Z,14.73
2018-04-13T15:12:41.700Z,17.47
2018-04-13T15:15:11.028Z,15.83
2018-04-13T15:17:40.342Z,31.10
2018-04-13T15:20:10.753Z,23.53
2018-04-13T15:22:40.833Z,25.53
2018-04-13T15:25:10.156Z,17.07
2018-04-13T15:27:39.571Z,19.20
2018-04-13T15:30:09.708Z,19.43
2018-04-13T15:32:39.161Z,14.67
2018-04-13T15:35:08.512Z,16.37
2018-04-13T15:37:37.894Z,17.60
2018-04-13T15:40:07.995Z,18.77
2018-04-13T15:42:38.221Z,17.70
2018-04-13T15:45:07.592Z,17.23
2018-04-13T15:47:37.019Z,15.20
2018-04-13T15:50:06.351Z,17.77
2018-04-13T15:52:36.543Z,19.43
2018-04-13T15:55:05.882Z,17.70
2018-04-13T15:57:35.970Z,16.67
2018-04-13T16:00:05.423Z,17.50
2018-04-13T16:02:35.505Z,16.63
2018-04-13T16:05:04.848Z,16.17
2018-04-13T16:07:34.207Z,16.70
2018-04-13T16:10:03.531Z,16.17
2018-04-13T16:12:33.636Z,17.23
2018-04-13T16:15:03.041Z,16.97
2018-04-13T16:17:32.358Z,19.40
2018-04-13T16:20:02.455Z,22.70
2018-04-13T16:22:31.754Z,19.23
2018-04-13T16:25:01.090Z,19.37
2018-04-13T16:27:31.210Z,18.73
2018-04-13T16:30:01.342Z,18.23
2018-04-13T16:32:31.420Z,20.40
2018-04-13T16:35:00.758Z,18.53
2018-04-13T16:37:30.886Z,20.33
2018-04-13T16:40:01.022Z,20.37
2018-04-13T16:42:30.379Z,20.03
2018-04-13T16:44:59.752Z,19.83
2018-04-13T16:47:29.062Z,20.53
2018-04-13T16:49:58.405Z,18.43
2018-04-13T16:52:27.718Z,20.77
2018-04-13T16:54:57.815Z,18.40
2018-04-13T16:57:27.149Z,18.53
2018-04-13T16:59:56.459Z,19.73
2018-04-13T17:02:25.782Z,20.23
2018-04-13T17:04:55.164Z,20.07
2018-04-13T17:07:24.490Z,19.93
2018-04-13T17:09:53.802Z,18.37
2018-04-13T17:12:23.114Z,21.20
2018-04-13T17:14:52.451Z,18.30
2018-04-13T17:17:22.569Z,19.00
2018-04-13T17:19:51.920Z,19.30
2018-04-13T17:22:21.221Z,18.63
2018-04-13T17:24:50.535Z,20.13
2018-04-13T17:27:19.891Z,23.83
2018-04-13T17:29:49.975Z,25.60
2018-04-13T17:32:19.318Z,28.80
2018-04-13T17:34:49.429Z,22.07
2018-04-13T17:37:19.544Z,23.63
2018-04-13T17:39:48.899Z,20.70
2018-04-13T17:42:18.227Z,19.83
2018-04-13T17:44:47.566Z,20.50
2018-04-13T17:47:17.750Z,17.27
2018-04-13T17:49:50.437Z,19.30
2018-04-13T17:52:20.432Z,18.97
2018-04-13T17:54:49.780Z,20.27
2018-04-13T17:57:19.928Z,17.90
2018-04-13T17:59:49.247Z,19.30
2018-04-13T18:02:18.595Z,22.47
2018-04-13T18:04:47.948Z,19.10
2018-04-13T18:07:17.301Z,18.50
2018-04-13T18:09:46.669Z,19.23
2018-04-13T18:12:15.984Z,19.17
2018-04-13T18:14:45.376Z,20.33
2018-04-13T18:17:14.729Z,21.50
2018-04-13T18:19:44.858Z,20.60
2018-04-13T18:22:14.208Z,21.03
2018-04-13T18:24:43.564Z,17.33
2018-04-13T18:27:14.105Z,22.90
2018-04-13T18:29:43.486Z,18.87
2018-04-13T18:32:13.575Z,20.37
2018-04-13T18:34:42.943Z,17.83
2018-04-13T18:37:12.291Z,20.20
2018-04-13T18:39:41.627Z,17.67
2018-04-13T18:42:15.851Z,21.93
2018-04-13T18:44:49.935Z,17.70
2018-04-13T18:47:22.655Z,19.57
2018-04-13T18:49:52.008Z,19.53
2018-04-13T18:52:21.331Z,18.47
2018-04-13T18:54:50.675Z,19.90
2018-04-13T18:57:20.068Z,22.47
2018-04-13T18:59:49.384Z,18.53
2018-04-13T19:02:19.101Z,23.20
2018-04-13T19:04:48.430Z,19.20
2018-04-13T19:07:17.790Z,22.73
2018-04-13T19:09:47.920Z,22.63
2018-04-13T19:12:17.246Z,20.23
2018-04-13T19:14:46.599Z,21.60
2018-04-13T19:17:15.966Z,27.90
2018-04-13T19:19:45.279Z,21.83
2018-04-13T19:22:14.613Z,19.57
2018-04-13T19:24:44.725Z,20.80
2018-04-13T19:27:14.808Z,18.73
2018-04-13T19:29:44.155Z,22.73
2018-04-13T19:32:14.295Z,19.43
2018-04-13T19:34:44.396Z,22.23
2018-04-13T19:37:14.543Z,18.03
2018-04-13T19:39:43.873Z,19.70
2018-04-13T19:42:13.216Z,14.63
2018-04-13T19:44:42.567Z,19.47
2018-04-13T19:47:11.892Z,22.37
2018-04-13T19:49:41.250Z,18.70
2018-04-13T19:52:11.785Z,19.47
2018-04-13T19:54:41.094Z,18.07
2018-04-13T19:57:10.421Z,18.90
2018-04-13T19:59:39.784Z,18.30
2018-04-13T20:02:09.311Z,20.13
2018-04-13T20:04:38.628Z,22.07
2018-04-13T20:07:08.005Z,22.70
2018-04-13T20:09:37.311Z,25.90
2018-04-13T20:12:06.932Z,23.70
2018-04-13T20:14:36.273Z,23.97
2018-04-13T20:17:05.614Z,26.63
2018-04-13T20:19:35.715Z,23.27
2018-04-13T20:22:05.095Z,23.37
2018-04-13T20:24:34.416Z,24.23
2018-04-13T20:27:03.755Z,26.83
2018-04-13T20:29:33.088Z,22.63
2018-04-13T20:32:02.422Z,22.87
2018-04-13T20:34:31.742Z,22.70
2018-04-13T20:37:01.867Z,25.77
2018-04-13T20:39:31.960Z,26.43
2018-04-13T20:42:01.315Z,24.93
2018-04-13T20:44:30.657Z,27.97
2018-04-13T20:47:00.757Z,26.40
2018-04-13T20:49:30.115Z,30.30
2018-04-13T20:52:00.247Z,30.27
2018-04-13T20:54:30.375Z,32.63
2018-04-13T20:56:59.678Z,33.27
2018-04-13T20:59:29.013Z,31.17
2018-04-13T21:01:58.350Z,37.50
2018-04-13T21:04:27.687Z,36.60
2018-04-13T21:06:57.020Z,41.63
2018-04-13T21:09:27.053Z,36.57
2018-04-13T21:11:56.376Z,32.37
2018-04-13T21:14:25.695Z,33.07
2018-04-13T21:16:55.817Z,31.47
2018-04-13T21:19:25.361Z,34.23
2018-04-13T21:21:54.675Z,28.33
2018-04-13T21:24:24.035Z,27.20
2018-04-13T21:26:54.154Z,32.33
2018-04-13T21:29:24.246Z,35.27
2018-04-13T21:31:53.613Z,35.47
2018-04-13T21:34:23.562Z,40.60
2018-04-13T21:36:52.989Z,32.77
2018-04-13T21:39:23.061Z,44.87
2018-04-13T21:41:52.409Z,43.40
2018-04-13T21:44:21.735Z,39.87
2018-04-13T21:46:51.046Z,41.30
2018-04-13T21:49:20.447Z,41.97
2018-04-13T21:51:49.754Z,45.13
2018-04-13T21:54:19.087Z,47.23
2018-04-13T21:56:48.410Z,49.23
2018-04-13T21:59:17.736Z,50.27
2018-04-13T22:01:47.842Z,49.57
2018-04-13T22:04:17.162Z,41.07
2018-04-13T22:06:47.252Z,43.40
2018-04-13T22:09:16.578Z,42.97
2018-04-13T22:11:46.665Z,42.90
2018-04-13T22:14:33.827Z,42.03
2018-04-13T22:17:03.904Z,42.50
2018-04-13T22:19:33.235Z,45.67
2018-04-13T22:22:02.641Z,45.07
2018-04-13T22:24:31.955Z,48.33
2018-04-13T22:27:02.246Z,47.13
2018-04-13T22:29:31.554Z,45.60
2018-04-13T22:32:00.862Z,48.20
2018-04-13T22:34:30.210Z,42.07
2018-04-13T22:36:59.518Z,45.70
2018-04-13T22:39:28.848Z,37.70
2018-04-13T22:41:58.178Z,43.23
2018-04-13T22:44:27.502Z,44.37
2018-04-13T22:46:57.569Z,40.10
2018-04-13T22:49:28.107Z,39.13
2018-04-13T22:51:57.419Z,44.47
2018-04-13T22:54:26.777Z,43.23
2018-04-13T22:56:56.083Z,39.77
2018-04-13T22:59:25.426Z,41.10
2018-04-13T23:01:54.776Z,40.73
2018-04-13T23:04:24.843Z,35.50
2018-04-13T23:06:54.178Z,36.97
2018-04-13T23:09:24.267Z,39.30
2018-04-13T23:11:53.587Z,36.10
2018-04-13T23:14:23.599Z,41.57
2018-04-13T23:16:52.956Z,38.67
2018-04-13T23:19:22.262Z,36.20
2018-04-13T23:21:52.431Z,33.47
2018-04-13T23:24:21.765Z,39.33
2018-04-13T23:26:51.840Z,38.33
2018-04-13T23:29:21.198Z,35.93
2018-04-13T23:31:50.511Z,34.90
2018-04-13T23:34:21.090Z,34.70
2018-04-13T23:36:50.423Z,37.43
2018-04-13T23:39:20.516Z,33.47
2018-04-13T23:41:49.901Z,41.97
2018-04-13T23:44:19.238Z,34.27
2018-04-13T23:46:48.581Z,34.83
2018-04-13T23:49:17.952Z,35.07
2018-04-13T23:51:47.268Z,36.87
2018-04-13T23:54:17.349Z,35.40
2018-04-13T23:56:46.703Z,36.83
2018-04-13T23:59:16.035Z,34.37
